Time;durP1;ratioP1;P1;durP2;ratioP2;P2;SDS_P1;SDS_P2;PMS_P1;PMS_P2;Temp;Humidity;BMP_temperature;BMP_pressure;BME280_temperature;BME280_humidity;BME280_pressure;Samples;Min_cycle;Max_cycle;Signal;HPM_P1;HPM_P2
2022/10/16 00:01:16;;;;;;;18.20;9.60;;;;;;;;;;5007833;28;20346;-67
2022/10/16 00:03:43;;;;;;;15.13;8.73;;;;;;;;;;5008993;28;20032;-67
2022/10/16 00:06:09;;;;;;;15.60;8.10;;;;;;;;;;5008454;28;20435;-66
2022/10/16 00:08:35;;;;;;;13.88;7.95;;;;;;;;;;5007590;28;20351;-66
2022/10/16 00:11:05;;;;;;;14.30;7.68;;;;;;;;;;5007491;28;20366;-67
2022/10/16 00:13:32;;;;;;;18.52;8.27;;;;;;;;;;5007568;28;20432;-67
2022/10/16 00:15:58;;;;;;;14.30;7.97;;;;;;;;;;5009409;28;20443;-66
2022/10/16 00:18:24;;;;;;;20.75;8.55;;;;;;;;;;5007603;28;20374;-66
2022/10/16 00:20:49;;;;;;;14.32;8.20;;;;;;;;;;5008527;28;20317;-66
2022/10/16 00:23:15;;;;;;;16.08;7.50;;;;;;;;;;5007591;28;20585;-66
2022/10/16 00:25:40;;;;;;;17.60;8.55;;;;;;;;;;5005879;28;20064;-66
2022/10/16 00:28:05;;;;;;;14.73;7.90;;;;;;;;;;4987625;28;20423;-66
2022/10/16 00:30:31;;;;;;;14.27;8.65;;;;;;;;;;4987530;28;20402;-67
2022/10/16 00:32:56;;;;;;;15.70;8.20;;;;;;;;;;4987762;28;20576;-67
2022/10/16 00:35:21;;;;;;;13.43;7.70;;;;;;;;;;4987973;28;20546;-66
2022/10/16 00:37:48;;;;;;;16.10;8.30;;;;;;;;;;4989967;28;20436;-66
2022/10/16 00:40:13;;;;;;;18.02;8.30;;;;;;;;;;4987509;28;20355;-66
2022/10/16 00:42:38;;;;;;;16.38;8.45;;;;;;;;;;4987479;28;20092;-67
2022/10/16 00:45:04;;;;;;;14.23;8.10;;;;;;;;;;4987560;28;20373;-66
2022/10/16 00:47:42;;;;;;;15.07;8.75;;;;;;;;;;4969311;28;20422;-67
2022/10/16 00:50:08;;;;;;;13.38;8.35;;;;;;;;;;4969318;28;20469;-66
2022/10/16 00:52:34;;;;;;;16.02;8.05;;;;;;;;;;4987436;28;20322;-67
2022/10/16 00:55:00;;;;;;;13.88;8.57;;;;;;;;;;4987606;28;20064;-67
2022/10/16 00:57:25;;;;;;;15.50;8.85;;;;;;;;;;4969653;28;20510;-66
2022/10/16 00:59:50;;;;;;;16.42;8.88;;;;;;;;;;4969629;28;20435;-67
2022/10/16 01:02:16;;;;;;;16.75;8.00;;;;;;;;;;4978552;28;20325;-66
2022/10/16 01:04:50;;;;;;;22.92;9.35;;;;;;;;;;4971653;28;20327;-67
2022/10/16 01:07:43;;;;;;;13.82;8.02;;;;;;;;;;4953403;28;20448;-67
2022/10/16 01:10:25;;;;;;;15.43;7.80;;;;;;;;;;4953489;28;20464;-66
2022/10/16 01:13:06;;;;;;;19.77;8.02;;;;;;;;;;4953493;28;20471;-66
2022/10/16 01:16:01;;;;;;;12.00;7.45;;;;;;;;;;4953329;28;20418;-67
2022/10/16 01:18:52;;;;;;;13.52;7.78;;;;;;;;;;4962066;28;20351;-67
2022/10/16 01:21:24;;;;;;;17.55;8.25;;;;;;;;;;4971050;28;20025;-66
2022/10/16 01:23:55;;;;;;;15.27;8.57;;;;;;;;;;4953207;28;20579;-67
2022/10/16 01:26:50;;;;;;;18.33;8.48;;;;;;;;;;4970713;28;20469;-67
2022/10/16 01:29:30;;;;;;;14.40;7.55;;;;;;;;;;4936279;28;20406;-67
2022/10/16 01:32:08;;;;;;;14.60;7.93;;;;;;;;;;4953740;28;20538;-67
2022/10/16 01:34:56;;;;;;;15.88;8.45;;;;;;;;;;4952942;28;20337;-67
2022/10/16 01:37:37;;;;;;;14.30;8.02;;;;;;;;;;4970993;28;20337;-67
2022/10/16 01:40:06;;;;;;;20.25;8.88;;;;;;;;;;4970744;28;20340;-67
2022/10/16 01:42:35;;;;;;;15.07;8.13;;;;;;;;;;4970638;28;20037;-67
2022/10/16 01:45:02;;;;;;;14.52;8.23;;;;;;;;;;4970644;28;20459;-67
2022/10/16 01:47:30;;;;;;;15.05;7.32;;;;;;;;;;4953752;28;20409;-67
2022/10/16 01:49:56;;;;;;;13.40;8.25;;;;;;;;;;4952701;28;20499;-67
2022/10/16 01:52:24;;;;;;;12.07;6.85;;;;;;;;;;4952766;28;20306;-66
2022/10/16 01:54:52;;;;;;;12.73;7.10;;;;;;;;;;4953059;28;20360;-66
2022/10/16 01:57:18;;;;;;;17.70;7.30;;;;;;;;;;4952829;28;20130;-66
2022/10/16 01:59:47;;;;;;;13.05;6.95;;;;;;;;;;4952718;28;20503;-67
2022/10/16 02:02:13;;;;;;;13.40;7.72;;;;;;;;;;4937262;28;20404;-66
2022/10/16 02:04:53;;;;;;;14.27;7.28;;;;;;;;;;4952507;28;20503;-67
2022/10/16 02:07:19;;;;;;;13.55;7.50;;;;;;;;;;4952242;28;20388;-67
2022/10/16 02:09:44;;;;;;;13.02;7.57;;;;;;;;;;4970832;28;20049;-66
2022/10/16 02:12:15;;;;;;;12.70;6.95;;;;;;;;;;4970167;28;20364;-67
2022/10/16 02:14:41;;;;;;;13.70;6.95;;;;;;;;;;4970233;28;20357;-67
2022/10/16 02:17:15;;;;;;;11.45;6.80;;;;;;;;;;4969972;28;20117;-67
2022/10/16 02:19:41;;;;;;;14.48;6.65;;;;;;;;;;4952151;28;20533;-66
2022/10/16 02:22:11;;;;;;;11.98;6.68;;;;;;;;;;4952685;28;20337;-67
2022/10/16 02:24:38;;;;;;;12.95;6.90;;;;;;;;;;4952210;28;20052;-66
2022/10/16 02:27:13;;;;;;;12.57;6.72;;;;;;;;;;4970267;28;20480;-67
2022/10/16 02:29:44;;;;;;;14.38;6.85;;;;;;;;;;4970039;28;20502;-66
2022/10/16 02:32:10;;;;;;;11.55;7.07;;;;;;;;;;4969866;28;20387;-67
2022/10/16 02:34:36;;;;;;;11.80;6.97;;;;;;;;;;4952005;28;20352;-67
2022/10/16 02:37:02;;;;;;;11.23;6.70;;;;;;;;;;4952060;28;20366;-66
2022/10/16 02:39:28;;;;;;;11.27;6.22;;;;;;;;;;4951874;28;20351;-66
2022/10/16 02:41:54;;;;;;;11.32;6.65;;;;;;;;;;4971586;28;20347;-66
2022/10/16 02:44:19;;;;;;;11.18;6.30;;;;;;;;;;4970195;28;20401;-66
2022/10/16 02:46:44;;;;;;;12.43;6.63;;;;;;;;;;4969912;28;20339;-67
2022/10/16 02:49:10;;;;;;;14.55;7.38;;;;;;;;;;4969489;28;20480;-67
2022/10/16 02:51:35;;;;;;;18.38;6.50;;;;;;;;;;4969409;28;20363;-67
2022/10/16 02:54:02;;;;;;;17.70;6.10;;;;;;;;;;4971701;28;20385;-66
2022/10/16 02:56:27;;;;;;;11.45;6.28;;;;;;;;;;4951840;28;20360;-66
2022/10/16 02:58:52;;;;;;;9.73;6.00;;;;;;;;;;4951396;28;20064;-66
2022/10/16 03:01:18;;;;;;;14.40;7.57;;;;;;;;;;4969257;28;20539;-66
2022/10/16 03:03:43;;;;;;;14.05;6.90;;;;;;;;;;4969278;28;20429;-66
2022/10/16 03:06:09;;;;;;;11.13;6.47;;;;;;;;;;4969165;28;20347;-67
2022/10/16 03:08:34;;;;;;;9.35;5.82;;;;;;;;;;4969336;28;20513;-66
2022/10/16 03:10:59;;;;;;;16.88;5.95;;;;;;;;;;4951101;28;20468;-66
2022/10/16 03:13:24;;;;;;;14.98;6.40;;;;;;;;;;4969025;28;20456;-66
2022/10/16 03:15:50;;;;;;;11.88;6.55;;;;;;;;;;4969617;28;20490;-66
2022/10/16 03:18:15;;;;;;;15.07;6.47;;;;;;;;;;4968957;28;20456;-66
2022/10/16 03:20:42;;;;;;;13.32;6.38;;;;;;;;;;4968951;28;20383;-66
2022/10/16 03:23:08;;;;;;;11.00;5.97;;;;;;;;;;4969920;28;20459;-67
2022/10/16 03:25:33;;;;;;;13.30;7.10;;;;;;;;;;4968736;28;20421;-66
2022/10/16 03:27:58;;;;;;;11.23;6.55;;;;;;;;;;4968993;28;20129;-66
2022/10/16 03:30:24;;;;;;;15.38;5.50;;;;;;;;;;4950753;28;20463;-66
2022/10/16 03:32:53;;;;;;;9.77;5.70;;;;;;;;;;4969237;28;20424;-66
2022/10/16 03:35:19;;;;;;;10.50;6.22;;;;;;;;;;4970423;28;20030;-66
2022/10/16 03:37:44;;;;;;;8.45;5.18;;;;;;;;;;4952028;28;20459;-67
2022/10/16 03:40:10;;;;;;;9.48;5.97;;;;;;;;;;4969063;28;20337;-67
2022/10/16 03:42:35;;;;;;;10.38;5.90;;;;;;;;;;4968861;28;20559;-67
2022/10/16 03:45:01;;;;;;;8.80;5.72;;;;;;;;;;4968491;28;20476;-66
2022/10/16 03:47:26;;;;;;;10.07;5.70;;;;;;;;;;4969832;28;20439;-66
2022/10/16 03:49:51;;;;;;;13.10;6.50;;;;;;;;;;4968423;28;20436;-67
2022/10/16 03:52:17;;;;;;;11.95;6.43;;;;;;;;;;4968614;28;20356;-66
2022/10/16 03:54:43;;;;;;;13.50;5.80;;;;;;;;;;4969024;28;20328;-67
2022/10/16 03:57:08;;;;;;;8.73;5.50;;;;;;;;;;4968727;28;20502;-66
2022/10/16 03:59:33;;;;;;;12.20;6.13;;;;;;;;;;4968622;28;20432;-67
2022/10/16 04:01:59;;;;;;;10.27;5.47;;;;;;;;;;4969585;28;20496;-66
2022/10/16 04:04:24;;;;;;;11.25;6.35;;;;;;;;;;4950475;28;20543;-66
2022/10/16 04:06:50;;;;;;;12.43;5.90;;;;;;;;;;4950571;28;20420;-67
2022/10/16 04:09:15;;;;;;;12.88;5.88;;;;;;;;;;4950297;28;20418;-66
2022/10/16 04:11:41;;;;;;;11.63;5.97;;;;;;;;;;4969031;28;20424;-67
2022/10/16 04:14:06;;;;;;;11.70;6.07;;;;;;;;;;4968322;28;20432;-66
2022/10/16 04:16:31;;;;;;;8.85;5.45;;;;;;;;;;4968141;28;20352;-67
2022/10/16 04:18:57;;;;;;;10.13;5.43;;;;;;;;;;4950379;28;20440;-67
2022/10/16 04:21:22;;;;;;;11.15;5.95;;;;;;;;;;4968199;28;20325;-67
2022/10/16 04:23:48;;;;;;;12.85;5.70;;;;;;;;;;4968128;28;20502;-67
2022/10/16 04:26:13;;;;;;;10.80;5.95;;;;;;;;;;4969244;28;20045;-67
2022/10/16 04:28:39;;;;;;;9.48;5.53;;;;;;;;;;4969420;28;20052;-67
2022/10/16 04:31:05;;;;;;;12.13;5.95;;;;;;;;;;4968051;28;20462;-67
2022/10/16 04:33:31;;;;;;;10.95;5.75;;;;;;;;;;4969200;28;20424;-67
2022/10/16 04:35:57;;;;;;;10.07;6.45;;;;;;;;;;4970283;28;20393;-67
2022/10/16 04:38:23;;;;;;;10.48;6.30;;;;;;;;;;4968001;28;20344;-67
2022/10/16 04:40:48;;;;;;;11.25;6.57;;;;;;;;;;4968817;28;20095;-67
2022/10/16 04:43:13;;;;;;;10.80;5.18;;;;;;;;;;4973517;28;20559;-67
2022/10/16 04:45:39;;;;;;;11.07;6.60;;;;;;;;;;4973938;28;20519;-66
2022/10/16 04:48:04;;;;;;;8.90;6.13;;;;;;;;;;4971725;28;20481;-67
2022/10/16 04:50:29;;;;;;;10.55;6.28;;;;;;;;;;4972493;28;20479;-67
2022/10/16 04:52:55;;;;;;;12.10;6.60;;;;;;;;;;4971704;28;20444;-67
2022/10/16 04:55:20;;;;;;;10.85;6.25;;;;;;;;;;4971624;28;20515;-67
2022/10/16 04:57:46;;;;;;;9.75;6.47;;;;;;;;;;4953862;28;20349;-67
2022/10/16 05:00:12;;;;;;;13.25;5.63;;;;;;;;;;4971722;28;20392;-67
2022/10/16 05:02:37;;;;;;;10.10;6.30;;;;;;;;;;4971481;28;20395;-67
2022/10/16 05:05:03;;;;;;;15.68;7.65;;;;;;;;;;4971494;28;20364;-67
2022/10/16 05:07:28;;;;;;;17.20;8.20;;;;;;;;;;4971347;28;20539;-67
2022/10/16 05:09:54;;;;;;;13.98;7.43;;;;;;;;;;4971324;28;20437;-67
2022/10/16 05:12:19;;;;;;;13.07;6.85;;;;;;;;;;4973250;28;20377;-67
2022/10/16 05:14:44;;;;;;;13.27;6.88;;;;;;;;;;4971876;28;20037;-67
2022/10/16 05:17:10;;;;;;;10.52;5.55;;;;;;;;;;4971370;28;20359;-67
2022/10/16 05:19:35;;;;;;;14.32;6.47;;;;;;;;;;4971313;28;20436;-67
2022/10/16 05:22:00;;;;;;;12.75;6.38;;;;;;;;;;4971569;28;20340;-67
2022/10/16 05:24:26;;;;;;;8.88;5.97;;;;;;;;;;4971516;28;20344;-67
2022/10/16 05:26:51;;;;;;;16.13;6.93;;;;;;;;;;4963522;28;20486;-67
2022/10/16 05:29:17;;;;;;;10.10;6.57;;;;;;;;;;4990689;28;20032;-67
2022/10/16 05:31:42;;;;;;;12.27;7.10;;;;;;;;;;4990815;28;20363;-67
2022/10/16 05:34:07;;;;;;;14.30;6.55;;;;;;;;;;4990708;28;20048;-67
2022/10/16 05:36:33;;;;;;;10.07;5.97;;;;;;;;;;4990566;28;20461;-67
2022/10/16 05:38:58;;;;;;;14.88;7.00;;;;;;;;;;4990571;28;20432;-67
2022/10/16 05:41:25;;;;;;;10.18;6.28;;;;;;;;;;4992134;28;20424;-67
2022/10/16 05:43:51;;;;;;;11.02;5.85;;;;;;;;;;4973587;28;20112;-67
2022/10/16 05:46:16;;;;;;;9.50;6.53;;;;;;;;;;4990530;28;20017;-67
2022/10/16 05:48:42;;;;;;;16.48;6.57;;;;;;;;;;4990535;28;20432;-67
2022/10/16 05:51:10;;;;;;;10.50;5.85;;;;;;;;;;4972294;28;20412;-67
2022/10/16 05:53:37;;;;;;;15.27;7.47;;;;;;;;;;4972388;28;20519;-67
2022/10/16 05:56:03;;;;;;;13.23;6.80;;;;;;;;;;4972534;28;20409;-67
2022/10/16 05:58:35;;;;;;;13.10;8.15;;;;;;;;;;4972233;28;20352;-67
2022/10/16 06:01:03;;;;;;;17.50;7.68;;;;;;;;;;4972276;28;20467;-67
2022/10/16 06:03:28;;;;;;;12.57;8.02;;;;;;;;;;4990229;28;20351;-67
2022/10/16 06:05:54;;;;;;;16.58;9.27;;;;;;;;;;4972096;28;20051;-67
2022/10/16 06:08:21;;;;;;;16.13;9.70;;;;;;;;;;4989990;28;20389;-67
2022/10/16 06:10:46;;;;;;;17.95;11.38;;;;;;;;;;4990478;28;20473;-67
2022/10/16 06:13:12;;;;;;;15.38;8.77;;;;;;;;;;4990197;28;20367;-67
2022/10/16 06:15:38;;;;;;;19.48;9.30;;;;;;;;;;4989877;28;20061;-67
2022/10/16 06:18:04;;;;;;;19.33;10.32;;;;;;;;;;4989879;28;20055;-67
2022/10/16 06:20:30;;;;;;;13.65;6.63;;;;;;;;;;4990552;28;20455;-67
2022/10/16 06:22:56;;;;;;;14.57;8.15;;;;;;;;;;4989845;28;20340;-67
2022/10/16 06:25:22;;;;;;;13.75;7.75;;;;;;;;;;4971739;28;20052;-67
2022/10/16 06:27:47;;;;;;;18.85;8.10;;;;;;;;;;4971715;28;20456;-67
2022/10/16 06:30:13;;;;;;;16.10;7.03;;;;;;;;;;4969772;28;20428;-67
2022/10/16 06:32:38;;;;;;;11.65;6.75;;;;;;;;;;4969797;28;20455;-67
2022/10/16 06:35:03;;;;;;;11.80;6.15;;;;;;;;;;4969913;28;20018;-67
2022/10/16 06:37:29;;;;;;;16.40;7.45;;;;;;;;;;4969861;28;20460;-67
2022/10/16 06:39:54;;;;;;;28.02;12.13;;;;;;;;;;4971500;28;20048;-67
2022/10/16 06:42:19;;;;;;;21.40;9.95;;;;;;;;;;4969944;28;20108;-67
2022/10/16 06:44:45;;;;;;;24.38;12.13;;;;;;;;;;4969896;28;20401;-67
2022/10/16 06:47:10;;;;;;;18.52;10.27;;;;;;;;;;4969655;28;20416;-67
2022/10/16 06:49:36;;;;;;;16.10;7.60;;;;;;;;;;4969392;28;20364;-67
2022/10/16 06:52:01;;;;;;;12.50;7.03;;;;;;;;;;4969459;28;20463;-67
2022/10/16 06:54:27;;;;;;;11.07;6.95;;;;;;;;;;4970911;28;20356;-67
2022/10/16 06:56:54;;;;;;;13.20;7.15;;;;;;;;;;4969393;28;20355;-67
2022/10/16 06:59:22;;;;;;;20.88;7.80;;;;;;;;;;4969609;28;20336;-67
2022/10/16 07:01:47;;;;;;;12.73;7.90;;;;;;;;;;4951392;28;20340;-67
2022/10/16 07:04:13;;;;;;;16.58;7.55;;;;;;;;;;4969073;28;20318;-67
2022/10/16 07:06:38;;;;;;;11.43;6.47;;;;;;;;;;4969786;28;20345;-67
2022/10/16 07:09:06;;;;;;;12.18;6.25;;;;;;;;;;4969277;28;20340;-67
2022/10/16 07:11:32;;;;;;;12.43;6.15;;;;;;;;;;4951159;28;20506;-67
2022/10/16 07:13:57;;;;;;;9.05;5.88;;;;;;;;;;4951245;28;20503;-67
2022/10/16 07:16:28;;;;;;;9.05;5.53;;;;;;;;;;4970460;28;20425;-67
2022/10/16 07:18:58;;;;;;;10.13;5.78;;;;;;;;;;4970502;28;20368;-67
2022/10/16 07:21:25;;;;;;;8.50;5.28;;;;;;;;;;4951475;28;20033;-67
2022/10/16 07:23:54;;;;;;;9.45;5.50;;;;;;;;;;4951402;28;20362;-67
2022/10/16 07:26:20;;;;;;;9.10;5.25;;;;;;;;;;4957223;28;20348;-66
2022/10/16 07:28:46;;;;;;;9.38;5.55;;;;;;;;;;4971131;28;20044;-66
2022/10/16 07:31:15;;;;;;;13.60;5.60;;;;;;;;;;4988393;28;20922;-67
2022/10/16 07:33:44;;;;;;;11.13;5.35;;;;;;;;;;4990384;28;20025;-67
2022/10/16 07:36:11;;;;;;;8.45;5.00;;;;;;;;;;4988375;28;20024;-67
2022/10/16 07:38:36;;;;;;;10.30;6.15;;;;;;;;;;4970835;28;20355;-67
2022/10/16 07:41:11;;;;;;;9.35;5.93;;;;;;;;;;4989339;28;20335;-67
2022/10/16 07:43:37;;;;;;;11.57;6.03;;;;;;;;;;4970369;28;20446;-67
2022/10/16 07:46:02;;;;;;;15.70;6.55;;;;;;;;;;4988361;28;20321;-67
2022/10/16 07:48:30;;;;;;;14.85;5.68;;;;;;;;;;4970334;28;20048;-67
2022/10/16 07:51:06;;;;;;;14.07;6.57;;;;;;;;;;4970257;28;20543;-67
2022/10/16 07:53:33;;;;;;;9.60;5.78;;;;;;;;;;4970011;28;20491;-67
2022/10/16 07:56:00;;;;;;;11.07;5.88;;;;;;;;;;4988160;28;20321;-67
2022/10/16 07:58:26;;;;;;;12.30;5.43;;;;;;;;;;4970683;28;20482;-67
2022/10/16 08:00:51;;;;;;;9.07;4.85;;;;;;;;;;4987970;28;20489;-67
2022/10/16 08:03:16;;;;;;;11.80;5.53;;;;;;;;;;4988073;28;20498;-67
2022/10/16 08:05:42;;;;;;;10.63;5.03;;;;;;;;;;4988043;28;20025;-67
2022/10/16 08:08:12;;;;;;;8.52;5.22;;;;;;;;;;4990101;28;20024;-66
2022/10/16 08:10:37;;;;;;;10.00;5.50;;;;;;;;;;4969810;28;20444;-67
2022/10/16 08:13:03;;;;;;;7.90;4.50;;;;;;;;;;4987841;28;20450;-67
2022/10/16 08:15:28;;;;;;;7.43;4.65;;;;;;;;;;4988852;28;20318;-67
2022/10/16 08:17:57;;;;;;;9.93;5.60;;;;;;;;;;4987906;28;20340;-66
2022/10/16 08:20:23;;;;;;;8.23;4.95;;;;;;;;;;4987987;28;20346;-66
2022/10/16 08:22:48;;;;;;;9.32;4.82;;;;;;;;;;4987861;28;20344;-66
2022/10/16 08:25:13;;;;;;;7.53;4.75;;;;;;;;;;4987834;28;20111;-66
2022/10/16 08:27:39;;;;;;;9.15;5.00;;;;;;;;;;4970701;28;20453;-67
2022/10/16 08:30:04;;;;;;;8.73;4.95;;;;;;;;;;4969161;28;20424;-67
2022/10/16 08:32:30;;;;;;;8.93;4.68;;;;;;;;;;4968435;28;20412;-67
2022/10/16 08:34:55;;;;;;;8.68;4.72;;;;;;;;;;4968276;28;20458;-66
2022/10/16 08:37:20;;;;;;;7.13;4.47;;;;;;;;;;4950832;28;20425;-66
2022/10/16 08:39:46;;;;;;;7.88;4.80;;;;;;;;;;4968010;28;20080;-67
2022/10/16 08:42:23;;;;;;;8.25;4.88;;;;;;;;;;4969275;28;20442;-67
2022/10/16 08:44:52;;;;;;;10.13;4.65;;;;;;;;;;4967992;28;20448;-67
2022/10/16 08:47:20;;;;;;;7.05;4.28;;;;;;;;;;4969684;28;20103;-67
2022/10/16 08:50:01;;;;;;;10.13;4.90;;;;;;;;;;4950259;28;20468;-67
2022/10/16 08:52:30;;;;;;;8.15;4.35;;;;;;;;;;4950173;28;20433;-66
2022/10/16 08:54:56;;;;;;;10.20;4.60;;;;;;;;;;4950082;28;20352;-67
2022/10/16 08:57:22;;;;;;;9.70;4.80;;;;;;;;;;4967896;28;20344;-66
2022/10/16 08:59:48;;;;;;;6.88;4.57;;;;;;;;;;4950371;28;20357;-66
2022/10/16 09:02:31;;;;;;;6.88;4.03;;;;;;;;;;4967810;28;20025;-66
2022/10/16 09:05:08;;;;;;;10.15;4.63;;;;;;;;;;4950310;28;20395;-66
2022/10/16 09:08:01;;;;;;;7.63;4.15;;;;;;;;;;4950136;28;20428;-66
2022/10/16 09:10:54;;;;;;;7.38;4.57;;;;;;;;;;4950052;28;20047;-66
2022/10/16 09:13:37;;;;;;;7.13;4.22;;;;;;;;;;4968197;28;20408;-66
2022/10/16 09:16:18;;;;;;;8.30;4.45;;;;;;;;;;4950886;28;20435;-66
2022/10/16 09:19:05;;;;;;;7.35;4.38;;;;;;;;;;4950396;28;20401;-66
2022/10/16 09:21:32;;;;;;;7.43;4.75;;;;;;;;;;4968318;28;20433;-68
2022/10/16 09:24:18;;;;;;;6.15;4.32;;;;;;;;;;4950899;28;20096;-66
2022/10/16 09:26:45;;;;;;;8.95;4.78;;;;;;;;;;4978713;28;20513;-66
2022/10/16 09:29:15;;;;;;;8.35;4.30;;;;;;;;;;4991648;28;20473;-66
2022/10/16 09:31:41;;;;;;;12.35;4.22;;;;;;;;;;4992771;28;20313;-66
2022/10/16 09:34:29;;;;;;;7.40;4.78;;;;;;;;;;4992072;28;20060;-66
2022/10/16 09:36:57;;;;;;;7.65;5.15;;;;;;;;;;4990732;28;20444;-66
2022/10/16 09:39:22;;;;;;;6.97;4.22;;;;;;;;;;4991833;28;20451;-66
2022/10/16 09:41:48;;;;;;;8.13;4.60;;;;;;;;;;4990592;28;20573;-66
2022/10/16 09:44:29;;;;;;;6.43;4.45;;;;;;;;;;4973118;28;20029;-66
2022/10/16 09:47:20;;;;;;;6.90;4.18;;;;;;;;;;4990330;28;20398;-66
2022/10/16 09:49:52;;;;;;;6.80;3.97;;;;;;;;;;4990861;28;20448;-66
2022/10/16 09:52:19;;;;;;;8.85;4.47;;;;;;;;;;4990597;28;20402;-66
2022/10/16 09:54:51;;;;;;;6.32;3.95;;;;;;;;;;4972540;28;20025;-66
2022/10/16 09:57:16;;;;;;;7.07;4.60;;;;;;;;;;4990516;28;20120;-66
2022/10/16 09:59:52;;;;;;;7.60;4.72;;;;;;;;;;4973444;28;20097;-66
2022/10/16 10:02:37;;;;;;;5.35;4.03;;;;;;;;;;4990321;28;20400;-66
2022/10/16 10:05:05;;;;;;;8.38;4.45;;;;;;;;;;4991728;28;20452;-66
2022/10/16 10:07:34;;;;;;;8.90;4.35;;;;;;;;;;4990275;28;20355;-66
2022/10/16 10:09:59;;;;;;;6.85;4.25;;;;;;;;;;4972096;28;20051;-66
2022/10/16 10:12:27;;;;;;;6.93;4.32;;;;;;;;;;4972374;28;20451;-66
2022/10/16 10:14:55;;;;;;;5.70;3.72;;;;;;;;;;4972420;28;20450;-66
2022/10/16 10:17:23;;;;;;;5.50;3.90;;;;;;;;;;4971714;28;20403;-66
2022/10/16 10:19:57;;;;;;;7.95;4.55;;;;;;;;;;4971906;28;20052;-67
2022/10/16 10:22:32;;;;;;;6.45;4.20;;;;;;;;;;4991290;28;20411;-66
2022/10/16 10:25:13;;;;;;;9.75;5.03;;;;;;;;;;4971518;28;20476;-66
2022/10/16 10:27:47;;;;;;;6.47;3.90;;;;;;;;;;4972828;28;20053;-66
2022/10/16 10:30:26;;;;;;;5.65;3.75;;;;;;;;;;4970035;28;20088;-66
2022/10/16 10:32:57;;;;;;;6.32;3.70;;;;;;;;;;4969812;28;20545;-66
2022/10/16 10:35:30;;;;;;;7.82;4.28;;;;;;;;;;4969711;28;20396;-66
2022/10/16 10:38:17;;;;;;;6.38;4.18;;;;;;;;;;4969467;28;20444;-66
2022/10/16 10:40:51;;;;;;;6.15;4.03;;;;;;;;;;4970281;28;20432;-66
2022/10/16 10:43:47;;;;;;;7.28;4.20;;;;;;;;;;4951795;28;20025;-66
2022/10/16 10:46:36;;;;;;;8.52;4.03;;;;;;;;;;4970786;28;20098;-67
2022/10/16 10:49:04;;;;;;;6.82;4.38;;;;;;;;;;4945592;28;20472;-66
2022/10/16 10:51:50;;;;;;;6.40;4.00;;;;;;;;;;4969345;28;20364;-66
2022/10/16 10:54:24;;;;;;;5.97;3.90;;;;;;;;;;4952156;28;20059;-66
2022/10/16 10:57:02;;;;;;;6.82;3.90;;;;;;;;;;4969453;28;20029;-66
2022/10/16 10:59:39;;;;;;;5.40;3.35;;;;;;;;;;4951475;28;20573;-66
2022/10/16 11:02:33;;;;;;;5.22;3.90;;;;;;;;;;4951856;28;20341;-66
2022/10/16 11:05:10;;;;;;;6.40;4.43;;;;;;;;;;4951564;28;20368;-66
2022/10/16 11:08:18;;;;;;;8.27;4.68;;;;;;;;;;4969192;28;20409;-66
2022/10/16 11:10:56;;;;;;;7.97;4.30;;;;;;;;;;4911907;28;20560;-66
2022/10/16 11:13:28;;;;;;;6.88;4.32;;;;;;;;;;4950384;28;20378;-66
2022/10/16 11:15:57;;;;;;;5.30;3.60;;;;;;;;;;4969452;28;20447;-66
2022/10/16 11:18:25;;;;;;;;;;;;;;;;;;4951519;28;20510;-66
2022/10/16 11:21:05;;;;;;;6.93;4.25;;;;;;;;;;4967482;28;19940;-66
2022/10/16 11:23:37;;;;;;;4.85;3.75;;;;;;;;;;4969783;28;20398;-67
2022/10/16 11:26:06;;;;;;;7.13;3.50;;;;;;;;;;4968713;28;20081;-66
2022/10/16 11:28:46;;;;;;;6.40;4.00;;;;;;;;;;4950944;28;20428;-66
2022/10/16 11:31:17;;;;;;;6.20;4.18;;;;;;;;;;4968618;28;20444;-66
2022/10/16 11:33:52;;;;;;;9.20;4.07;;;;;;;;;;4950746;28;20452;-66
2022/10/16 11:36:32;;;;;;;5.38;3.50;;;;;;;;;;4951179;28;20108;-66
2022/10/16 11:39:01;;;;;;;7.20;4.20;;;;;;;;;;4970871;28;20332;-66
2022/10/16 11:41:35;;;;;;;5.60;3.40;;;;;;;;;;4969004;28;20375;-66
2022/10/16 11:44:22;;;;;;;4.93;3.40;;;;;;;;;;4968408;28;20128;-66
2022/10/16 11:47:23;;;;;;;6.70;4.05;;;;;;;;;;4969732;28;20336;-66
2022/10/16 11:49:52;;;;;;;5.15;3.80;;;;;;;;;;4949370;28;20399;-66
2022/10/16 11:52:37;;;;;;;6.32;4.22;;;;;;;;;;4950642;28;20460;-66
2022/10/16 11:55:14;;;;;;;5.68;3.70;;;;;;;;;;4950855;28;20052;-66
2022/10/16 11:57:44;;;;;;;6.75;4.07;;;;;;;;;;4950754;28;20432;-66
2022/10/16 12:00:23;;;;;;;6.00;3.65;;;;;;;;;;4968595;28;20590;-66
2022/10/16 12:03:16;;;;;;;6.10;3.97;;;;;;;;;;4950523;28;20506;-66
2022/10/16 12:06:14;;;;;;;7.30;3.80;;;;;;;;;;4945837;28;20067;-66
2022/10/16 12:08:40;;;;;;;;;;;;;;;;;;4951103;28;20326;-66
2022/10/16 12:11:27;;;;;;;6.50;3.20;;;;;;;;;;4968904;28;20227;-66
2022/10/16 12:14:05;;;;;;;6.28;3.33;;;;;;;;;;4968248;28;20088;-66
2022/10/16 12:16:30;;;;;;;8.13;3.78;;;;;;;;;;4968202;28;20448;-66
2022/10/16 12:19:16;;;;;;;4.90;3.70;;;;;;;;;;4950245;28;20443;-66
2022/10/16 12:21:43;;;;;;;5.32;3.15;;;;;;;;;;4968001;28;20610;-67
2022/10/16 12:24:33;;;;;;;5.40;3.75;;;;;;;;;;4950251;28;20456;-67
2022/10/16 12:26:59;;;;;;;11.00;4.47;;;;;;;;;;4968994;28;20053;-66
2022/10/16 12:29:30;;;;;;;4.45;3.58;;;;;;;;;;4950099;28;20513;-66
2022/10/16 12:31:55;;;;;;;5.25;3.35;;;;;;;;;;4950448;28;20467;-66
2022/10/16 12:34:37;;;;;;;4.95;3.03;;;;;;;;;;4950066;28;20459;-66
2022/10/16 12:37:21;;;;;;;5.03;3.63;;;;;;;;;;4967798;28;20301;-66
2022/10/16 12:39:47;;;;;;;5.22;3.60;;;;;;;;;;4950260;28;20021;-66
2022/10/16 12:42:28;;;;;;;5.80;4.03;;;;;;;;;;4950291;28;20429;-66
2022/10/16 12:44:54;;;;;;;5.18;3.08;;;;;;;;;;4967913;28;20330;-66
2022/10/16 12:47:31;;;;;;;8.88;3.63;;;;;;;;;;4949964;28;20368;-66
2022/10/16 12:49:57;;;;;;;6.60;3.72;;;;;;;;;;4967773;28;20336;-66
2022/10/16 12:52:37;;;;;;;5.32;3.53;;;;;;;;;;4967690;28;20103;-66
2022/10/16 12:55:04;;;;;;;5.47;3.65;;;;;;;;;;4967830;28;20329;-66
2022/10/16 12:57:45;;;;;;;6.10;3.78;;;;;;;;;;4967600;28;20429;-66
2022/10/16 13:00:20;;;;;;;5.72;3.67;;;;;;;;;;4950387;28;20432;-66
2022/10/16 13:03:19;;;;;;;6.20;3.63;;;;;;;;;;4970755;28;20460;-67
2022/10/16 13:05:57;;;;;;;6.40;3.63;;;;;;;;;;4971456;28;20348;-66
2022/10/16 13:08:32;;;;;;;6.63;3.58;;;;;;;;;;4953853;28;20318;-67
2022/10/16 13:11:35;;;;;;;5.72;4.22;;;;;;;;;;4971992;28;20061;-66
2022/10/16 13:14:15;;;;;;;5.55;3.30;;;;;;;;;;4971596;28;20034;-66
2022/10/16 13:17:08;;;;;;;7.22;5.07;;;;;;;;;;4972457;28;20317;-66
2022/10/16 13:19:45;;;;;;;7.18;3.60;;;;;;;;;;4971699;28;20403;-66
2022/10/16 13:22:49;;;;;;;5.43;3.10;;;;;;;;;;4971226;28;20503;-66
2022/10/16 13:25:27;;;;;;;6.25;3.70;;;;;;;;;;4972738;28;20332;-66
2022/10/16 13:27:56;;;;;;;7.68;4.20;;;;;;;;;;4970973;28;20479;-66
2022/10/16 13:30:23;;;;;;;;;;;;;;;;;;4953454;28;20467;-66
2022/10/16 13:32:50;;;;;;;6.45;3.45;;;;;;;;;;4970926;28;20347;-67
2022/10/16 13:35:30;;;;;;;7.00;3.80;;;;;;;;;;4971454;28;20416;-66
2022/10/16 13:38:16;;;;;;;9.77;3.90;;;;;;;;;;4971052;28;20343;-66
2022/10/16 13:40:57;;;;;;;8.05;3.55;;;;;;;;;;4945166;28;20419;-66
2022/10/16 13:43:34;;;;;;;7.53;3.65;;;;;;;;;;4971353;28;20339;-66
2022/10/16 13:46:05;;;;;;;6.63;3.75;;;;;;;;;;4953124;28;20096;-66
2022/10/16 13:48:31;;;;;;;5.50;3.83;;;;;;;;;;4970676;28;20333;-66
2022/10/16 13:51:00;;;;;;;5.47;3.70;;;;;;;;;;4972768;28;20459;-66
2022/10/16 13:53:26;;;;;;;7.55;3.67;;;;;;;;;;4971049;28;20451;-66
2022/10/16 13:55:51;;;;;;;7.53;4.03;;;;;;;;;;4972596;28;20416;-66
2022/10/16 13:58:16;;;;;;;5.28;4.05;;;;;;;;;;4971566;28;20039;-66
2022/10/16 14:01:11;;;;;;;5.35;4.18;;;;;;;;;;4952639;28;20033;-66
2022/10/16 14:03:37;;;;;;;8.45;4.10;;;;;;;;;;4952603;28;20449;-66
2022/10/16 14:06:04;;;;;;;6.20;4.10;;;;;;;;;;4953739;28;20332;-66
2022/10/16 14:08:30;;;;;;;8.60;4.03;;;;;;;;;;4970870;28;20440;-66
2022/10/16 14:10:58;;;;;;;6.68;3.83;;;;;;;;;;4952585;28;20116;-66
2022/10/16 14:13:39;;;;;;;6.03;4.10;;;;;;;;;;4952347;28;20306;-66
2022/10/16 14:16:10;;;;;;;9.13;4.03;;;;;;;;;;4953514;28;20362;-66
2022/10/16 14:18:37;;;;;;;6.22;3.83;;;;;;;;;;4970029;28;20525;-66
2022/10/16 14:21:05;;;;;;;7.00;3.63;;;;;;;;;;4952778;28;20352;-67
2022/10/16 14:23:37;;;;;;;5.80;3.63;;;;;;;;;;4970528;28;20358;-66
2022/10/16 14:26:15;;;;;;;4.47;3.45;;;;;;;;;;4951954;28;20126;-66
2022/10/16 14:28:41;;;;;;;5.07;3.42;;;;;;;;;;4969896;28;20501;-66
2022/10/16 14:31:18;;;;;;;5.97;3.67;;;;;;;;;;4952548;28;20452;-66
2022/10/16 14:33:44;;;;;;;6.25;3.78;;;;;;;;;;4969978;28;20455;-66
2022/10/16 14:36:09;;;;;;;5.50;3.67;;;;;;;;;;4951829;28;20460;-66
2022/10/16 14:38:35;;;;;;;6.88;3.72;;;;;;;;;;4971216;28;20452;-66
2022/10/16 14:41:00;;;;;;;5.00;3.50;;;;;;;;;;4969840;28;20092;-66
2022/10/16 14:43:31;;;;;;;6.63;3.58;;;;;;;;;;4969658;28;20022;-66
2022/10/16 14:45:57;;;;;;;6.25;3.95;;;;;;;;;;4969597;28;20459;-66
2022/10/16 14:48:23;;;;;;;6.50;3.47;;;;;;;;;;4951986;28;20440;-66
2022/10/16 14:50:49;;;;;;;4.93;3.53;;;;;;;;;;4951731;28;20460;-66
2022/10/16 14:53:14;;;;;;;5.18;3.67;;;;;;;;;;4969358;28;20505;-66
2022/10/16 14:55:41;;;;;;;4.57;3.10;;;;;;;;;;4969444;28;20434;-66